• Join FlightAware (Why Join?)
  • Login
  • US Flag 
09:54AM EDT


 

Airport Tracker/Info


-or-


 

Live Flight TrackerFlight Track Log ✈ SKW6525 ✈ 06-May-2013 ✈ KDEN - KOKC

Flight Track Log - Related Links

Times and Time Zones

All times are in EDT time to prevent confusion due to time zone crossing. See the SKW6525 flight status page for this flight to view local times or setup timezone preferences in your user account.

Time Position Orientation Groundspeed Altitude Reporting Facility
EDT Latitude Longitude Course Direction KTS MPH feet Rate Location/Type
10:57PM 39.9167 -104.6167 108° East 236 272 8,800  Level Denver TRACON
10:58PM 39.6448 -104.2919 108° East  Level Estimated
10:58PM 39.8833 -104.5333 118° Southeast 280 322 10,400  Level Denver TRACON
10:59PM 39.5722 -104.1654 123° Southeast  Level Estimated
10:59PM 39.8500 -104.4333 113° Southeast 333 383 12,000  Level Denver TRACON
11:00PM 39.4995 -104.0391 110° East  Level Estimated
11:00PM 39.7903 -104.3031 121° Southeast 336 387 15,200  Level Denver Center
11:01PM 39.4267 -103.9131 90° East  Level Estimated
11:02PM 39.3537 -103.7873 108° East  Level Estimated
11:02PM 39.6972 -104.0650 117° Southeast 374 430 19,300  Level Denver Center
11:03PM 39.6486 -103.9383 116° Southeast 396 456 20,900 1,620 Climbing Denver Center
11:04PM 39.5925 -103.8000 118° Southeast 406 467 22,700 1,620 Climbing Denver Center
11:05PM 39.5581 -103.6631 108° East 404 465 24,300 1,380 Climbing Denver Center
11:06PM 39.5189 -103.5158 109° East 424 488 25,600 1,320 Climbing Denver Center
11:07PM 39.4797 -103.3656 109° East 437 503 27,000 1,260 Climbing Denver Center
11:08PM 39.4383 -103.2125 109° East 446 513 28,300 1,020 Climbing Denver Center
11:09PM 39.3967 -103.0564 109° East 453 521 29,100 660 Climbing Denver Center
11:10PM 39.3611 -102.9219 109° East 468 539 29,700 840 Climbing Denver Center
11:11PM 39.3061 -102.7186 109° East 473 544 31,000 1,080 Climbing Denver Center
11:12PM 39.2575 -102.5400 109° East 473 544 32,200 1,200 Climbing Denver Center
11:13PM 39.2097 -102.3622 109° East 470 541 33,500 1,080 Climbing Denver Center
11:14PM 39.1672 -102.2114 110° East 469 540 34,400 720 Climbing Denver Center
11:15PM 39.1311 -102.0850 110° East 471 542 35,000 840 Climbing Denver Center
11:16PM 39.0272 -101.9203 129° Southeast 466 536 36,200 1,020 Climbing Denver Center
11:17PM 38.9342 -101.8186 140° Southeast 459 528 37,100 1,020 Climbing Denver Center
11:18PM 38.8317 -101.6942 137° Southeast 455 524 38,300 900 Climbing Denver Center
11:19PM 38.7469 -101.5864 135° Southeast 449 517 39,000 300 Climbing Denver Center
11:20PM 38.6456 -101.4614 136° Southeast 451 519 39,000  Level Denver Center
11:21PM 38.5578 -101.3508 135° Southeast 459 528 39,000  Level Denver Center
11:22PM 38.4686 -101.2389 135° Southeast 467 537 39,000  Level Denver Center
11:24PM 38.3633 -101.1103 136° Southeast 469 540 39,000  Level Denver Center
11:25PM 38.2725 -100.9983 136° Southeast 473 544 39,000  Level Denver Center
11:26PM 38.1803 -100.8850 136° Southeast 477 549 39,000  Level Denver Center
11:27PM 38.0733 -100.7536 136° Southeast 477 549 39,000  Level Denver Center
11:27PM 38.0275 -100.6969 136° Southeast 477 549 39,000  Level Kansas City Center
11:28PM 37.9347 -100.5850 136° Southeast 478 550 39,000  Level Kansas City Center
11:29PM 37.8422 -100.4719 136° Southeast 478 550 39,000  Level Kansas City Center
11:30PM 37.7331 -100.3422 137° Southeast 479 551 39,000  Level Kansas City Center
11:31PM 37.6408 -100.2292 136° Southeast 480 552 39,000  Level Kansas City Center
11:32PM 37.5492 -100.1169 136° Southeast 480 552 39,000  Level Kansas City Center
11:33PM 37.4411 -99.9867 136° Southeast 479 551 39,000  Level Kansas City Center
11:34PM 37.3489 -99.8767 137° Southeast 478 550 39,000  Level Kansas City Center
11:35PM 37.2569 -99.7650 136° Southeast 478 550 39,000  Level Kansas City Center
11:36PM 37.1497 -99.6361 136° Southeast 478 550 39,000  Level Kansas City Center
11:37PM 37.0569 -99.5269 137° Southeast 478 550 39,000  Level Kansas City Center
11:38PM 36.9736 -99.4269 136° Southeast 478 550 39,000  Level Kansas City Center
11:39PM 36.8572 -99.2906 137° Southeast 479 551 39,000 -120 Level Kansas City Center
11:40PM 36.7647 -99.1800 136° Southeast 478 550 38,800 -1,380 Descending Kansas City Center
11:41PM 36.6628 -99.0608 137° Southeast 484 557 36,300 -2,520 Descending Kansas City Center
11:42PM 36.5661 -98.9467 136° Southeast 484 557 33,800 -2,460 Descending Kansas City Center
11:43PM 36.4683 -98.8344 137° Southeast 474 545 31,300 -2,460 Descending Kansas City Center
11:44PM 36.3736 -98.7261 137° Southeast 466 536 28,800 -2,460 Descending Kansas City Center
11:45PM 36.2783 -98.6156 137° Southeast 470 541 26,300 -2,460 Descending Kansas City Center
11:46PM 36.1828 -98.5056 137° Southeast 470 541 23,800 -2,520 Descending Kansas City Center
11:47PM 36.0917 -98.3989 137° Southeast 456 525 21,200 -2,520 Descending Kansas City Center
11:48PM 36.0047 -98.3008 138° Southeast 433 498 18,700 -2,340 Descending Kansas City Center
11:49PM 35.9208 -98.2028 137° Southeast 420 483 16,500 -2,220 Descending Kansas City Center
11:50PM 35.8689 -98.1511 141° Southeast 410 472 15,400 -2,160 Descending Fort Worth Center
11:51PM 35.7778 -98.0608 141° Southeast 387 445 13,300 -1,740 Descending Fort Worth Center
11:52PM 35.7092 -97.9964 143° Southeast 362 417 12,100 -1,500 Descending Fort Worth Center
11:53PM 35.6283 -97.9142 140° Southeast 325 374 10,300 -1,560 Descending Fort Worth Center
11:54PM 35.5619 -97.8500 142° Southeast 297 342 8,900 -1,500 Descending Fort Worth Center
11:55PM 35.4933 -97.7833 142° Southeast 287 330 7,100 -1,740 Descending Fort Worth Center
11:56PM 35.4206 -97.7192 144° Southeast 280 322 5,100 -1,560 Descending Fort Worth Center
11:57PM 35.3600 -97.6886 158° South 263 303 4,000 -1,080 Descending Fort Worth Center
11:58PM 35.3039 -97.6628 159° South 170 196 2,900 -780 Descending Fort Worth Center
11:59PM 35.3206 -97.6222 63° Northeast 119 137 2,400 -540 Descending Fort Worth Center